sensor_id;sensor_type;location;lat;lon;timestamp;temperature;humidity
15231;DHT22;32569;51.762;8.564;2023-05-10T00:01:20;15.10;99.90
15231;DHT22;32569;51.762;8.564;2023-05-10T00:03:47;15.00;99.90
15231;DHT22;32569;51.762;8.564;2023-05-10T00:06:14;14.90;99.90
15231;DHT22;32569;51.762;8.564;2023-05-10T00:08:40;14.80;99.90
15231;DHT22;32569;51.762;8.564;2023-05-10T00:11:07;14.70;99.90
15231;DHT22;32569;51.762;8.564;2023-05-10T00:13:38;14.70;99.90
15231;DHT22;32569;51.762;8.564;2023-05-10T00:16:05;14.70;99.90
15231;DHT22;32569;51.762;8.564;2023-05-10T00:18:34;14.60;99.90
15231;DHT22;32569;51.762;8.564;2023-05-10T00:21:01;14.60;99.90
15231;DHT22;32569;51.762;8.564;2023-05-10T00:23:28;14.70;99.90
15231;DHT22;32569;51.762;8.564;2023-05-10T00:25:54;14.70;99.90
15231;DHT22;32569;51.762;8.564;2023-05-10T00:28:21;14.80;99.90
15231;DHT22;32569;51.762;8.564;2023-05-10T00:30:49;14.90;99.90
15231;DHT22;32569;51.762;8.564;2023-05-10T00:33:18;14.80;99.90
15231;DHT22;32569;51.762;8.564;2023-05-10T00:35:45;14.60;99.90
15231;DHT22;32569;51.762;8.564;2023-05-10T00:38:12;14.70;99.90
15231;DHT22;32569;51.762;8.564;2023-05-10T00:40:39;14.60;99.90
15231;DHT22;32569;51.762;8.564;2023-05-10T00:43:05;14.60;99.90
15231;DHT22;32569;51.762;8.564;2023-05-10T00:45:36;14.60;99.90
15231;DHT22;32569;51.762;8.564;2023-05-10T00:48:05;14.60;99.90
15231;DHT22;32569;51.762;8.564;2023-05-10T00:50:32;14.60;99.90
15231;DHT22;32569;51.762;8.564;2023-05-10T00:53:00;14.70;99.90
15231;DHT22;32569;51.762;8.564;2023-05-10T00:55:28;14.70;99.90
15231;DHT22;32569;51.762;8.564;2023-05-10T00:57:55;14.60;99.90
15231;DHT22;32569;51.762;8.564;2023-05-10T01:00:22;14.70;99.90
15231;DHT22;32569;51.762;8.564;2023-05-10T01:02:49;14.70;99.90
15231;DHT22;32569;51.762;8.564;2023-05-10T01:05:17;14.70;99.90
15231;DHT22;32569;51.762;8.564;2023-05-10T01:07:43;14.70;99.90
15231;DHT22;32569;51.762;8.564;2023-05-10T01:10:10;14.60;99.90
15231;DHT22;32569;51.762;8.564;2023-05-10T01:12:39;14.50;99.90
15231;DHT22;32569;51.762;8.564;2023-05-10T01:15:07;14.50;99.90
15231;DHT22;32569;51.762;8.564;2023-05-10T01:17:38;14.60;99.90
15231;DHT22;32569;51.762;8.564;2023-05-10T01:20:06;14.60;99.90
15231;DHT22;32569;51.762;8.564;2023-05-10T01:22:57;14.50;99.90
15231;DHT22;32569;51.762;8.564;2023-05-10T01:25:58;14.50;99.90
15231;DHT22;32569;51.762;8.564;2023-05-10T01:28:58;14.40;99.90
15231;DHT22;32569;51.762;8.564;2023-05-10T01:34:34;14.60;99.90
15231;DHT22;32569;51.762;8.564;2023-05-10T01:37:05;14.50;99.90
15231;DHT22;32569;51.762;8.564;2023-05-10T01:39:41;14.50;99.90
15231;DHT22;32569;51.762;8.564;2023-05-10T01:42:17;14.60;99.90
15231;DHT22;32569;51.762;8.564;2023-05-10T01:44:51;14.50;99.90
15231;DHT22;32569;51.762;8.564;2023-05-10T01:47:24;14.50;99.90
15231;DHT22;32569;51.762;8.564;2023-05-10T01:49:55;14.50;99.90
15231;DHT22;32569;51.762;8.564;2023-05-10T01:52:26;14.50;99.90
15231;DHT22;32569;51.762;8.564;2023-05-10T01:54:58;14.40;99.90
15231;DHT22;32569;51.762;8.564;2023-05-10T01:57:33;14.30;99.90
15231;DHT22;32569;51.762;8.564;2023-05-10T02:00:01;14.30;99.90
15231;DHT22;32569;51.762;8.564;2023-05-10T02:02:29;14.20;99.90
15231;DHT22;32569;51.762;8.564;2023-05-10T02:04:59;14.10;99.90
15231;DHT22;32569;51.762;8.564;2023-05-10T02:07:27;14.10;99.90
15231;DHT22;32569;51.762;8.564;2023-05-10T02:09:58;14.00;99.90
15231;DHT22;32569;51.762;8.564;2023-05-10T02:12:25;13.90;99.90
15231;DHT22;32569;51.762;8.564;2023-05-10T02:14:53;13.90;99.90
15231;DHT22;32569;51.762;8.564;2023-05-10T02:17:21;13.80;99.90
15231;DHT22;32569;51.762;8.564;2023-05-10T02:19:49;13.80;99.90
15231;DHT22;32569;51.762;8.564;2023-05-10T02:22:19;13.80;99.90
15231;DHT22;32569;51.762;8.564;2023-05-10T02:24:47;13.80;99.90
15231;DHT22;32569;51.762;8.564;2023-05-10T02:27:14;13.80;99.90
15231;DHT22;32569;51.762;8.564;2023-05-10T02:29:42;13.80;99.90
15231;DHT22;32569;51.762;8.564;2023-05-10T02:32:10;13.70;99.90
15231;DHT22;32569;51.762;8.564;2023-05-10T02:34:38;13.80;99.90
15231;DHT22;32569;51.762;8.564;2023-05-10T02:37:05;13.80;99.90
15231;DHT22;32569;51.762;8.564;2023-05-10T02:39:34;13.90;99.90
15231;DHT22;32569;51.762;8.564;2023-05-10T02:42:01;13.80;99.90
15231;DHT22;32569;51.762;8.564;2023-05-10T02:44:29;13.90;99.90
15231;DHT22;32569;51.762;8.564;2023-05-10T02:46:57;13.90;99.90
15231;DHT22;32569;51.762;8.564;2023-05-10T02:49:23;13.80;99.90
15231;DHT22;32569;51.762;8.564;2023-05-10T02:51:53;13.90;99.90
15231;DHT22;32569;51.762;8.564;2023-05-10T02:54:27;13.90;99.90
15231;DHT22;32569;51.762;8.564;2023-05-10T02:56:58;13.90;99.90
15231;DHT22;32569;51.762;8.564;2023-05-10T02:59:25;13.90;99.90
15231;DHT22;32569;51.762;8.564;2023-05-10T03:01:52;13.90;99.90
15231;DHT22;32569;51.762;8.564;2023-05-10T03:04:19;13.90;99.90
15231;DHT22;32569;51.762;8.564;2023-05-10T03:06:46;13.90;99.90
15231;DHT22;32569;51.762;8.564;2023-05-10T03:09:13;13.80;99.90
15231;DHT22;32569;51.762;8.564;2023-05-10T03:11:49;13.80;99.90
15231;DHT22;32569;51.762;8.564;2023-05-10T03:14:32;13.80;99.90
15231;DHT22;32569;51.762;8.564;2023-05-10T03:17:09;13.80;99.90
15231;DHT22;32569;51.762;8.564;2023-05-10T03:19:42;13.80;99.90
15231;DHT22;32569;51.762;8.564;2023-05-10T03:22:10;13.90;99.90
15231;DHT22;32569;51.762;8.564;2023-05-10T03:24:41;13.90;99.90
15231;DHT22;32569;51.762;8.564;2023-05-10T03:27:08;13.80;99.90
15231;DHT22;32569;51.762;8.564;2023-05-10T03:29:40;13.80;99.90
15231;DHT22;32569;51.762;8.564;2023-05-10T03:32:08;13.80;99.90
15231;DHT22;32569;51.762;8.564;2023-05-10T03:34:41;13.70;99.90
15231;DHT22;32569;51.762;8.564;2023-05-10T03:37:08;13.70;99.90
15231;DHT22;32569;51.762;8.564;2023-05-10T03:39:35;13.70;99.90
15231;DHT22;32569;51.762;8.564;2023-05-10T03:42:02;13.70;99.90
15231;DHT22;32569;51.762;8.564;2023-05-10T03:44:28;13.70;99.90
15231;DHT22;32569;51.762;8.564;2023-05-10T03:46:56;13.50;99.90
15231;DHT22;32569;51.762;8.564;2023-05-10T03:49:23;13.50;99.90
15231;DHT22;32569;51.762;8.564;2023-05-10T03:51:49;13.50;99.90
15231;DHT22;32569;51.762;8.564;2023-05-10T03:54:16;13.40;99.90
15231;DHT22;32569;51.762;8.564;2023-05-10T03:56:43;13.40;99.90
15231;DHT22;32569;51.762;8.564;2023-05-10T03:59:09;13.40;99.90
15231;DHT22;32569;51.762;8.564;2023-05-10T04:01:36;13.40;99.90
15231;DHT22;32569;51.762;8.564;2023-05-10T04:04:07;13.30;99.90
15231;DHT22;32569;51.762;8.564;2023-05-10T04:06:33;13.40;99.90
15231;DHT22;32569;51.762;8.564;2023-05-10T04:09:00;13.40;99.90
15231;DHT22;32569;51.762;8.564;2023-05-10T04:11:29;13.40;99.90
15231;DHT22;32569;51.762;8.564;2023-05-10T04:13:56;13.40;99.90
15231;DHT22;32569;51.762;8.564;2023-05-10T04:16:23;13.40;99.90
15231;DHT22;32569;51.762;8.564;2023-05-10T04:18:49;13.30;99.90
15231;DHT22;32569;51.762;8.564;2023-05-10T04:21:17;13.10;99.90
15231;DHT22;32569;51.762;8.564;2023-05-10T04:23:44;13.20;99.90
15231;DHT22;32569;51.762;8.564;2023-05-10T04:26:11;13.30;99.90
15231;DHT22;32569;51.762;8.564;2023-05-10T04:28:37;13.20;99.90
15231;DHT22;32569;51.762;8.564;2023-05-10T04:31:05;13.20;99.90
15231;DHT22;32569;51.762;8.564;2023-05-10T04:33:32;13.10;99.90
15231;DHT22;32569;51.762;8.564;2023-05-10T04:35:59;13.10;99.90
15231;DHT22;32569;51.762;8.564;2023-05-10T04:38:28;12.90;99.90
15231;DHT22;32569;51.762;8.564;2023-05-10T04:40:54;13.00;99.90
15231;DHT22;32569;51.762;8.564;2023-05-10T04:43:21;13.00;99.90
15231;DHT22;32569;51.762;8.564;2023-05-10T04:45:47;13.10;99.90
15231;DHT22;32569;51.762;8.564;2023-05-10T04:48:15;13.10;99.90
15231;DHT22;32569;51.762;8.564;2023-05-10T04:50:42;13.10;99.90
15231;DHT22;32569;51.762;8.564;2023-05-10T04:53:08;13.10;99.90
15231;DHT22;32569;51.762;8.564;2023-05-10T04:55:36;13.10;99.90
15231;DHT22;32569;51.762;8.564;2023-05-10T04:58:03;13.10;99.90
15231;DHT22;32569;51.762;8.564;2023-05-10T05:00:30;13.10;99.90
15231;DHT22;32569;51.762;8.564;2023-05-10T05:02:57;13.00;99.90
15231;DHT22;32569;51.762;8.564;2023-05-10T05:05:24;13.10;99.90
15231;DHT22;32569;51.762;8.564;2023-05-10T05:07:50;13.10;99.90
15231;DHT22;32569;51.762;8.564;2023-05-10T05:10:17;13.10;99.90
15231;DHT22;32569;51.762;8.564;2023-05-10T05:12:45;13.10;99.90
15231;DHT22;32569;51.762;8.564;2023-05-10T05:15:12;13.10;99.90
15231;DHT22;32569;51.762;8.564;2023-05-10T05:17:40;13.20;99.90
15231;DHT22;32569;51.762;8.564;2023-05-10T05:20:08;13.10;99.90
15231;DHT22;32569;51.762;8.564;2023-05-10T05:22:35;13.20;99.90
15231;DHT22;32569;51.762;8.564;2023-05-10T05:25:03;13.20;99.90
15231;DHT22;32569;51.762;8.564;2023-05-10T05:27:29;13.20;99.90
15231;DHT22;32569;51.762;8.564;2023-05-10T05:29:57;13.30;99.90
15231;DHT22;32569;51.762;8.564;2023-05-10T05:32:24;13.30;99.90
15231;DHT22;32569;51.762;8.564;2023-05-10T05:34:51;13.20;99.90
15231;DHT22;32569;51.762;8.564;2023-05-10T05:37:19;13.20;99.90
15231;DHT22;32569;51.762;8.564;2023-05-10T05:39:46;13.30;99.90
15231;DHT22;32569;51.762;8.564;2023-05-10T05:42:13;13.30;99.90
15231;DHT22;32569;51.762;8.564;2023-05-10T05:44:41;13.40;99.90
15231;DHT22;32569;51.762;8.564;2023-05-10T05:47:10;13.30;99.90
15231;DHT22;32569;51.762;8.564;2023-05-10T05:49:37;13.30;99.90
15231;DHT22;32569;51.762;8.564;2023-05-10T05:52:04;13.30;99.90
15231;DHT22;32569;51.762;8.564;2023-05-10T05:54:31;13.40;99.90
15231;DHT22;32569;51.762;8.564;2023-05-10T05:56:58;13.50;99.90
15231;DHT22;32569;51.762;8.564;2023-05-10T05:59:25;13.40;99.90
15231;DHT22;32569;51.762;8.564;2023-05-10T06:01:51;13.50;99.90
15231;DHT22;32569;51.762;8.564;2023-05-10T06:04:20;13.50;99.90
15231;DHT22;32569;51.762;8.564;2023-05-10T06:06:46;13.50;99.90
15231;DHT22;32569;51.762;8.564;2023-05-10T06:09:13;13.50;99.90
15231;DHT22;32569;51.762;8.564;2023-05-10T06:11:40;13.50;99.90
15231;DHT22;32569;51.762;8.564;2023-05-10T06:14:07;13.50;99.90
15231;DHT22;32569;51.762;8.564;2023-05-10T06:16:39;13.60;99.90
15231;DHT22;32569;51.762;8.564;2023-05-10T06:19:06;13.60;99.90
15231;DHT22;32569;51.762;8.564;2023-05-10T06:21:34;13.60;99.90
15231;DHT22;32569;51.762;8.564;2023-05-10T06:24:00;13.60;99.90
15231;DHT22;32569;51.762;8.564;2023-05-10T06:26:28;13.60;99.90
15231;DHT22;32569;51.762;8.564;2023-05-10T06:28:54;13.60;99.90
15231;DHT22;32569;51.762;8.564;2023-05-10T06:31:21;13.60;99.90
15231;DHT22;32569;51.762;8.564;2023-05-10T06:33:48;13.70;99.90
15231;DHT22;32569;51.762;8.564;2023-05-10T06:36:14;13.80;99.90
15231;DHT22;32569;51.762;8.564;2023-05-10T06:38:42;13.80;99.90
15231;DHT22;32569;51.762;8.564;2023-05-10T06:41:09;13.80;99.90
15231;DHT22;32569;51.762;8.564;2023-05-10T06:43:35;13.80;99.90
15231;DHT22;32569;51.762;8.564;2023-05-10T06:46:05;13.80;99.90
15231;DHT22;32569;51.762;8.564;2023-05-10T06:48:33;13.90;99.90
15231;DHT22;32569;51.762;8.564;2023-05-10T06:50:59;13.90;99.90
15231;DHT22;32569;51.762;8.564;2023-05-10T06:53:26;13.80;99.90
15231;DHT22;32569;51.762;8.564;2023-05-10T06:55:54;13.80;99.90
15231;DHT22;32569;51.762;8.564;2023-05-10T06:58:20;13.90;99.90
15231;DHT22;32569;51.762;8.564;2023-05-10T07:00:47;14.00;99.90
15231;DHT22;32569;51.762;8.564;2023-05-10T07:03:14;14.00;99.90
15231;DHT22;32569;51.762;8.564;2023-05-10T07:05:41;14.00;99.90
15231;DHT22;32569;51.762;8.564;2023-05-10T07:08:07;14.10;99.90
15231;DHT22;32569;51.762;8.564;2023-05-10T07:10:34;14.20;99.90
15231;DHT22;32569;51.762;8.564;2023-05-10T07:13:02;14.20;99.90
15231;DHT22;32569;51.762;8.564;2023-05-10T07:15:29;14.20;99.90
15231;DHT22;32569;51.762;8.564;2023-05-10T07:17:55;14.20;99.90
15231;DHT22;32569;51.762;8.564;2023-05-10T07:20:22;14.20;99.90
15231;DHT22;32569;51.762;8.564;2023-05-10T07:22:49;14.40;99.90
15231;DHT22;32569;51.762;8.564;2023-05-10T07:25:15;14.60;99.90
15231;DHT22;32569;51.762;8.564;2023-05-10T07:27:42;14.70;99.90
15231;DHT22;32569;51.762;8.564;2023-05-10T07:30:11;14.80;99.90
15231;DHT22;32569;51.762;8.564;2023-05-10T07:32:38;14.80;99.90
15231;DHT22;32569;51.762;8.564;2023-05-10T07:35:07;14.80;99.90
15231;DHT22;32569;51.762;8.564;2023-05-10T07:37:34;14.90;99.90
15231;DHT22;32569;51.762;8.564;2023-05-10T07:40:01;14.80;99.90
15231;DHT22;32569;51.762;8.564;2023-05-10T07:42:28;14.80;99.90
15231;DHT22;32569;51.762;8.564;2023-05-10T07:44:54;14.90;99.90
15231;DHT22;32569;51.762;8.564;2023-05-10T07:47:24;14.90;99.90
15231;DHT22;32569;51.762;8.564;2023-05-10T07:49:51;14.90;99.90
15231;DHT22;32569;51.762;8.564;2023-05-10T07:52:18;14.70;99.90
15231;DHT22;32569;51.762;8.564;2023-05-10T07:54:44;14.60;99.90
15231;DHT22;32569;51.762;8.564;2023-05-10T07:57:11;14.50;99.90
15231;DHT22;32569;51.762;8.564;2023-05-10T07:59:40;14.50;99.90
15231;DHT22;32569;51.762;8.564;2023-05-10T08:02:06;14.40;99.90
15231;DHT22;32569;51.762;8.564;2023-05-10T08:04:34;14.50;99.90
15231;DHT22;32569;51.762;8.564;2023-05-10T08:07:01;14.50;99.90
15231;DHT22;32569;51.762;8.564;2023-05-10T08:09:27;14.60;99.90
15231;DHT22;32569;51.762;8.564;2023-05-10T08:11:54;14.70;99.90
15231;DHT22;32569;51.762;8.564;2023-05-10T08:14:21;14.90;99.90
15231;DHT22;32569;51.762;8.564;2023-05-10T08:16:47;14.90;99.90
15231;DHT22;32569;51.762;8.564;2023-05-10T08:19:14;15.00;99.90
15231;DHT22;32569;51.762;8.564;2023-05-10T08:21:45;15.20;99.90
15231;DHT22;32569;51.762;8.564;2023-05-10T08:24:15;15.10;99.90
15231;DHT22;32569;51.762;8.564;2023-05-10T08:26:41;15.00;99.90
15231;DHT22;32569;51.762;8.564;2023-05-10T08:29:08;14.90;99.90
15231;DHT22;32569;51.762;8.564;2023-05-10T08:31:35;14.80;99.90
15231;DHT22;32569;51.762;8.564;2023-05-10T08:34:02;14.80;99.90
15231;DHT22;32569;51.762;8.564;2023-05-10T08:36:28;14.70;99.90
15231;DHT22;32569;51.762;8.564;2023-05-10T08:38:56;14.70;99.90
15231;DHT22;32569;51.762;8.564;2023-05-10T08:41:24;14.70;99.90
15231;DHT22;32569;51.762;8.564;2023-05-10T08:43:51;14.60;99.90
15231;DHT22;32569;51.762;8.564;2023-05-10T08:46:19;14.70;99.90
15231;DHT22;32569;51.762;8.564;2023-05-10T08:48:47;14.80;99.90
15231;DHT22;32569;51.762;8.564;2023-05-10T08:51:16;14.90;99.90
15231;DHT22;32569;51.762;8.564;2023-05-10T08:53:44;14.90;99.90
15231;DHT22;32569;51.762;8.564;2023-05-10T08:56:12;15.00;99.90
15231;DHT22;32569;51.762;8.564;2023-05-10T08:58:41;15.20;99.90
15231;DHT22;32569;51.762;8.564;2023-05-10T09:01:08;15.30;99.90
15231;DHT22;32569;51.762;8.564;2023-05-10T09:03:38;15.40;99.90
15231;DHT22;32569;51.762;8.564;2023-05-10T09:06:05;15.70;99.90
15231;DHT22;32569;51.762;8.564;2023-05-10T09:08:32;15.90;99.90
15231;DHT22;32569;51.762;8.564;2023-05-10T09:11:00;15.90;99.90
15231;DHT22;32569;51.762;8.564;2023-05-10T09:13:29;16.00;99.90
15231;DHT22;32569;51.762;8.564;2023-05-10T09:15:56;16.20;99.90
15231;DHT22;32569;51.762;8.564;2023-05-10T09:18:23;16.30;99.90
15231;DHT22;32569;51.762;8.564;2023-05-10T09:20:50;16.60;99.90
15231;DHT22;32569;51.762;8.564;2023-05-10T09:23:16;16.70;99.90
15231;DHT22;32569;51.762;8.564;2023-05-10T09:25:43;17.00;99.90
15231;DHT22;32569;51.762;8.564;2023-05-10T09:28:11;17.10;99.90
15231;DHT22;32569;51.762;8.564;2023-05-10T09:30:39;17.20;99.90
15231;DHT22;32569;51.762;8.564;2023-05-10T09:33:06;17.30;99.90
15231;DHT22;32569;51.762;8.564;2023-05-10T09:35:33;17.40;99.90
15231;DHT22;32569;51.762;8.564;2023-05-10T09:38:01;17.50;99.90
15231;DHT22;32569;51.762;8.564;2023-05-10T09:40:29;17.40;99.90
15231;DHT22;32569;51.762;8.564;2023-05-10T09:42:58;17.30;99.90
15231;DHT22;32569;51.762;8.564;2023-05-10T09:45:26;17.30;99.90
15231;DHT22;32569;51.762;8.564;2023-05-10T09:47:58;17.20;99.90
15231;DHT22;32569;51.762;8.564;2023-05-10T09:50:26;17.30;99.90
15231;DHT22;32569;51.762;8.564;2023-05-10T09:52:54;17.40;99.90
15231;DHT22;32569;51.762;8.564;2023-05-10T09:55:24;17.40;99.90
15231;DHT22;32569;51.762;8.564;2023-05-10T09:57:59;17.50;99.90
15231;DHT22;32569;51.762;8.564;2023-05-10T10:00:26;17.50;99.90
15231;DHT22;32569;51.762;8.564;2023-05-10T10:02:55;17.50;99.90
15231;DHT22;32569;51.762;8.564;2023-05-10T10:05:29;17.30;99.90
15231;DHT22;32569;51.762;8.564;2023-05-10T10:07:57;17.30;99.90
15231;DHT22;32569;51.762;8.564;2023-05-10T10:10:24;17.40;99.90
15231;DHT22;32569;51.762;8.564;2023-05-10T10:12:51;17.40;99.90
15231;DHT22;32569;51.762;8.564;2023-05-10T10:15:18;17.30;99.90
15231;DHT22;32569;51.762;8.564;2023-05-10T10:17:45;17.20;99.90
15231;DHT22;32569;51.762;8.564;2023-05-10T10:20:13;17.20;99.90
15231;DHT22;32569;51.762;8.564;2023-05-10T10:22:42;16.90;99.90
15231;DHT22;32569;51.762;8.564;2023-05-10T10:25:13;16.60;99.90
15231;DHT22;32569;51.762;8.564;2023-05-10T10:27:47;16.40;99.90
15231;DHT22;32569;51.762;8.564;2023-05-10T10:30:22;16.30;99.90
15231;DHT22;32569;51.762;8.564;2023-05-10T10:33:06;16.30;99.90
15231;DHT22;32569;51.762;8.564;2023-05-10T10:35:35;16.20;99.90
15231;DHT22;32569;51.762;8.564;2023-05-10T10:38:04;16.20;99.90
15231;DHT22;32569;51.762;8.564;2023-05-10T10:40:31;16.30;99.90
15231;DHT22;32569;51.762;8.564;2023-05-10T10:43:22;16.30;99.90
15231;DHT22;32569;51.762;8.564;2023-05-10T10:46:10;16.40;99.90
15231;DHT22;32569;51.762;8.564;2023-05-10T10:48:38;16.40;99.90
15231;DHT22;32569;51.762;8.564;2023-05-10T10:51:05;16.40;99.90
15231;DHT22;32569;51.762;8.564;2023-05-10T10:53:33;16.50;99.90
15231;DHT22;32569;51.762;8.564;2023-05-10T10:56:06;16.60;99.90
15231;DHT22;32569;51.762;8.564;2023-05-10T10:58:35;16.60;99.90
15231;DHT22;32569;51.762;8.564;2023-05-10T11:01:13;16.70;99.90
15231;DHT22;32569;51.762;8.564;2023-05-10T11:03:40;16.80;99.90
15231;DHT22;32569;51.762;8.564;2023-05-10T11:06:07;16.90;99.90
15231;DHT22;32569;51.762;8.564;2023-05-10T11:08:41;17.00;99.90
15231;DHT22;32569;51.762;8.564;2023-05-10T11:11:09;17.10;99.90
15231;DHT22;32569;51.762;8.564;2023-05-10T11:13:42;17.20;99.90
15231;DHT22;32569;51.762;8.564;2023-05-10T11:16:14;17.30;99.90
15231;DHT22;32569;51.762;8.564;2023-05-10T11:18:52;17.50;99.90
15231;DHT22;32569;51.762;8.564;2023-05-10T11:21:19;17.80;99.90
15231;DHT22;32569;51.762;8.564;2023-05-10T11:23:52;17.80;99.90
15231;DHT22;32569;51.762;8.564;2023-05-10T11:26:21;17.80;99.90
15231;DHT22;32569;51.762;8.564;2023-05-10T11:28:51;18.00;99.90
15231;DHT22;32569;51.762;8.564;2023-05-10T11:31:19;18.10;99.90
15231;DHT22;32569;51.762;8.564;2023-05-10T11:33:47;18.30;99.90
15231;DHT22;32569;51.762;8.564;2023-05-10T11:36:15;18.50;99.90
15231;DHT22;32569;51.762;8.564;2023-05-10T11:38:42;18.60;99.90
15231;DHT22;32569;51.762;8.564;2023-05-10T11:41:11;18.60;99.90
15231;DHT22;32569;51.762;8.564;2023-05-10T11:43:39;18.50;99.90
15231;DHT22;32569;51.762;8.564;2023-05-10T11:46:07;18.30;99.90
15231;DHT22;32569;51.762;8.564;2023-05-10T11:48:34;18.00;99.90
15231;DHT22;32569;51.762;8.564;2023-05-10T11:51:01;17.70;99.90
15231;DHT22;32569;51.762;8.564;2023-05-10T11:53:29;17.20;99.90
15231;DHT22;32569;51.762;8.564;2023-05-10T11:56:02;16.80;99.90
15231;DHT22;32569;51.762;8.564;2023-05-10T11:58:30;16.60;99.90
15231;DHT22;32569;51.762;8.564;2023-05-10T12:00:57;16.30;99.90
15231;DHT22;32569;51.762;8.564;2023-05-10T12:03:24;16.10;99.90
15231;DHT22;32569;51.762;8.564;2023-05-10T12:05:51;15.90;99.90
15231;DHT22;32569;51.762;8.564;2023-05-10T12:08:20;15.80;99.90
15231;DHT22;32569;51.762;8.564;2023-05-10T12:10:47;15.60;99.90
15231;DHT22;32569;51.762;8.564;2023-05-10T12:13:14;15.30;99.90
15231;DHT22;32569;51.762;8.564;2023-05-10T12:15:43;15.50;99.90
15231;DHT22;32569;51.762;8.564;2023-05-10T12:18:10;15.70;99.90
15231;DHT22;32569;51.762;8.564;2023-05-10T12:20:38;15.90;99.90
15231;DHT22;32569;51.762;8.564;2023-05-10T12:23:04;16.10;99.90
15231;DHT22;32569;51.762;8.564;2023-05-10T12:25:33;16.40;99.90
15231;DHT22;32569;51.762;8.564;2023-05-10T12:28:03;16.50;99.90
15231;DHT22;32569;51.762;8.564;2023-05-10T12:30:32;16.80;99.90
15231;DHT22;32569;51.762;8.564;2023-05-10T12:33:08;17.00;99.90
15231;DHT22;32569;51.762;8.564;2023-05-10T12:35:44;17.20;99.90
15231;DHT22;32569;51.762;8.564;2023-05-10T12:38:25;17.20;99.90
15231;DHT22;32569;51.762;8.564;2023-05-10T12:40:52;17.30;99.90
15231;DHT22;32569;51.762;8.564;2023-05-10T12:43:19;17.40;99.90
15231;DHT22;32569;51.762;8.564;2023-05-10T12:45:45;17.50;99.90
15231;DHT22;32569;51.762;8.564;2023-05-10T12:48:15;17.60;99.90
15231;DHT22;32569;51.762;8.564;2023-05-10T12:50:42;17.70;99.90
15231;DHT22;32569;51.762;8.564;2023-05-10T12:53:08;17.90;99.90
15231;DHT22;32569;51.762;8.564;2023-05-10T12:55:35;18.00;99.90
15231;DHT22;32569;51.762;8.564;2023-05-10T12:58:02;18.30;99.90
15231;DHT22;32569;51.762;8.564;2023-05-10T13:00:28;18.50;99.90
15231;DHT22;32569;51.762;8.564;2023-05-10T13:02:55;18.70;99.90
15231;DHT22;32569;51.762;8.564;2023-05-10T13:05:23;19.00;99.90
15231;DHT22;32569;51.762;8.564;2023-05-10T13:07:50;19.10;99.90
15231;DHT22;32569;51.762;8.564;2023-05-10T13:10:19;19.10;99.90
15231;DHT22;32569;51.762;8.564;2023-05-10T13:12:49;18.80;99.90
15231;DHT22;32569;51.762;8.564;2023-05-10T13:15:15;18.60;99.90
15231;DHT22;32569;51.762;8.564;2023-05-10T13:17:43;18.40;99.90
15231;DHT22;32569;51.762;8.564;2023-05-10T13:20:13;18.20;99.90
15231;DHT22;32569;51.762;8.564;2023-05-10T13:22:42;18.20;99.90
15231;DHT22;32569;51.762;8.564;2023-05-10T13:25:09;18.00;99.90
15231;DHT22;32569;51.762;8.564;2023-05-10T13:27:36;17.90;99.90
15231;DHT22;32569;51.762;8.564;2023-05-10T13:30:03;17.90;99.90
15231;DHT22;32569;51.762;8.564;2023-05-10T13:32:30;18.00;99.90
15231;DHT22;32569;51.762;8.564;2023-05-10T13:34:57;17.90;99.90
15231;DHT22;32569;51.762;8.564;2023-05-10T13:37:26;17.30;99.90
15231;DHT22;32569;51.762;8.564;2023-05-10T13:39:53;17.00;99.90
15231;DHT22;32569;51.762;8.564;2023-05-10T13:42:21;16.90;99.90
15231;DHT22;32569;51.762;8.564;2023-05-10T13:44:48;16.80;99.90
15231;DHT22;32569;51.762;8.564;2023-05-10T13:47:15;16.70;99.90
15231;DHT22;32569;51.762;8.564;2023-05-10T13:49:41;16.50;99.90
15231;DHT22;32569;51.762;8.564;2023-05-10T13:52:08;16.50;99.90
15231;DHT22;32569;51.762;8.564;2023-05-10T13:54:35;16.30;99.90
15231;DHT22;32569;51.762;8.564;2023-05-10T13:57:03;16.10;99.90
15231;DHT22;32569;51.762;8.564;2023-05-10T13:59:30;15.90;99.90
15231;DHT22;32569;51.762;8.564;2023-05-10T14:01:57;15.80;99.90
15231;DHT22;32569;51.762;8.564;2023-05-10T14:04:24;15.60;99.90
15231;DHT22;32569;51.762;8.564;2023-05-10T14:06:51;15.50;99.90
15231;DHT22;32569;51.762;8.564;2023-05-10T14:09:18;15.30;99.90
15231;DHT22;32569;51.762;8.564;2023-05-10T14:11:45;15.20;99.90
15231;DHT22;32569;51.762;8.564;2023-05-10T14:14:13;15.10;99.90
15231;DHT22;32569;51.762;8.564;2023-05-10T14:16:42;15.00;99.90
15231;DHT22;32569;51.762;8.564;2023-05-10T14:19:09;15.00;99.90
15231;DHT22;32569;51.762;8.564;2023-05-10T14:21:35;15.00;99.90
15231;DHT22;32569;51.762;8.564;2023-05-10T14:24:02;15.10;99.90
15231;DHT22;32569;51.762;8.564;2023-05-10T14:26:30;15.00;99.90
15231;DHT22;32569;51.762;8.564;2023-05-10T14:28:56;14.70;99.90
15231;DHT22;32569;51.762;8.564;2023-05-10T14:31:25;14.50;99.90
15231;DHT22;32569;51.762;8.564;2023-05-10T14:33:53;14.40;99.90
15231;DHT22;32569;51.762;8.564;2023-05-10T14:36:19;14.10;99.90
15231;DHT22;32569;51.762;8.564;2023-05-10T14:38:46;14.20;99.90
15231;DHT22;32569;51.762;8.564;2023-05-10T14:41:12;14.20;99.90
15231;DHT22;32569;51.762;8.564;2023-05-10T14:43:40;14.30;99.90
15231;DHT22;32569;51.762;8.564;2023-05-10T14:46:07;14.30;99.90
15231;DHT22;32569;51.762;8.564;2023-05-10T14:48:35;14.30;99.90
15231;DHT22;32569;51.762;8.564;2023-05-10T14:51:02;14.20;99.90
15231;DHT22;32569;51.762;8.564;2023-05-10T14:53:29;14.30;99.90
15231;DHT22;32569;51.762;8.564;2023-05-10T14:55:55;14.30;99.90
15231;DHT22;32569;51.762;8.564;2023-05-10T14:58:22;14.20;99.90
15231;DHT22;32569;51.762;8.564;2023-05-10T15:00:49;14.20;99.90
15231;DHT22;32569;51.762;8.564;2023-05-10T15:03:16;14.20;99.90
15231;DHT22;32569;51.762;8.564;2023-05-10T15:05:47;14.30;99.90
15231;DHT22;32569;51.762;8.564;2023-05-10T15:08:19;14.30;99.90
15231;DHT22;32569;51.762;8.564;2023-05-10T15:10:46;14.30;99.90
15231;DHT22;32569;51.762;8.564;2023-05-10T15:13:13;14.40;99.90
15231;DHT22;32569;51.762;8.564;2023-05-10T15:15:40;14.40;99.90
15231;DHT22;32569;51.762;8.564;2023-05-10T15:18:06;14.40;99.90
15231;DHT22;32569;51.762;8.564;2023-05-10T15:20:33;14.30;99.90
15231;DHT22;32569;51.762;8.564;2023-05-10T15:23:01;14.20;99.90
15231;DHT22;32569;51.762;8.564;2023-05-10T15:25:28;14.20;99.90
15231;DHT22;32569;51.762;8.564;2023-05-10T15:27:55;14.20;99.90
15231;DHT22;32569;51.762;8.564;2023-05-10T15:30:21;14.30;99.90
15231;DHT22;32569;51.762;8.564;2023-05-10T15:32:48;14.30;99.90
15231;DHT22;32569;51.762;8.564;2023-05-10T15:35:15;14.20;99.90
15231;DHT22;32569;51.762;8.564;2023-05-10T15:37:42;14.30;99.90
15231;DHT22;32569;51.762;8.564;2023-05-10T15:40:12;14.30;99.90